Time;durP1;ratioP1;P1;durP2;ratioP2;P2;SDS_P1;SDS_P2;PMS_P1;PMS_P2;Temp;Humidity;BMP_temperature;BMP_pressure;BME280_temperature;BME280_humidity;BME280_pressure;Samples;Min_cycle;Max_cycle;Signal;HPM_P1;HPM_P2
2022/05/24 00:00:19;;;;;;;8.80;3.50;;;;;;;16.98;72.16;96898.88;5107464;28;20026;-75
2022/05/24 00:02:45;;;;;;;5.35;3.90;;;;;;;16.84;73.38;96891.25;5090330;28;20153;-74
2022/05/24 00:05:11;;;;;;;7.13;3.95;;;;;;;16.87;73.60;96882.84;5089815;28;20696;-75
2022/05/24 00:07:37;;;;;;;5.57;3.50;;;;;;;16.85;74.28;96876.75;5089722;28;20039;-76
2022/05/24 00:10:04;;;;;;;15.10;4.28;;;;;;;16.91;73.73;96878.84;5072492;28;20054;-75
2022/05/24 00:12:30;;;;;;;9.63;3.67;;;;;;;16.69;74.33;96883.66;5089678;28;20039;-75
2022/05/24 00:17:40;;;;;;;6.38;3.10;;;;;;;16.64;76.73;96877.00;5090323;28;20510;-75
2022/05/24 00:20:06;;;;;;;4.50;3.13;;;;;;;16.66;77.08;96883.09;5089693;28;20024;-75
2022/05/24 00:22:31;;;;;;;5.60;3.45;;;;;;;16.75;77.43;96866.00;5089937;28;20453;-75
2022/05/24 00:25:01;;;;;;;7.10;3.58;;;;;;;16.73;77.31;96874.22;5089356;28;20111;-75
2022/05/24 00:27:28;;;;;;;5.78;3.35;;;;;;;16.78;77.34;96873.81;5066753;28;20024;-75
2022/05/24 00:29:54;;;;;;;7.30;3.70;;;;;;;16.73;77.94;96873.41;5072502;28;20024;-75
2022/05/24 00:32:19;;;;;;;8.98;3.72;;;;;;;16.92;76.96;96888.66;5089653;28;20111;-75
2022/05/24 00:34:45;;;;;;;6.20;3.90;;;;;;;16.68;77.69;96865.75;5089276;28;20050;-75
2022/05/24 00:37:11;;;;;;;8.48;4.47;;;;;;;16.74;78.09;96881.34;5089492;28;20031;-75
2022/05/24 00:39:36;;;;;;;6.07;3.90;;;;;;;16.86;77.52;96882.00;5089554;28;20028;-74
2022/05/24 00:42:15;;;;;;;10.80;4.30;;;;;;;16.83;77.82;96873.38;5089660;28;20085;-74
2022/05/24 00:44:48;;;;;;;7.00;4.20;;;;;;;16.60;78.86;96883.69;5089369;28;20413;-74
2022/05/24 00:47:30;;;;;;;12.45;4.80;;;;;;;16.78;77.46;96882.75;5089017;28;20105;-76
2022/05/24 00:50:00;;;;;;;6.97;4.20;;;;;;;16.74;77.71;96878.66;5086010;28;20497;-74
2022/05/24 00:52:49;;;;;;;10.27;4.00;;;;;;;16.64;78.54;96880.53;5072456;28;20470;-74
2022/05/24 00:55:16;;;;;;;11.40;4.45;;;;;;;16.52;79.42;96876.28;5091620;28;20478;-75
2022/05/24 00:57:52;;;;;;;7.13;4.10;;;;;;;16.46;79.50;96878.72;5110394;28;20024;-75
2022/05/24 01:00:21;;;;;;;9.20;4.13;;;;;;;16.55;79.36;96884.13;5076444;28;20020;-75
2022/05/24 01:02:47;;;;;;;8.50;4.20;;;;;;;16.34;80.26;96872.66;5093411;28;20095;-75
2022/05/24 01:05:22;;;;;;;10.80;4.05;;;;;;;16.44;80.37;96872.63;5093185;28;20470;-75
2022/05/24 01:07:48;;;;;;;7.53;4.30;;;;;;;16.53;80.34;96872.59;5093045;28;20059;-74
2022/05/24 01:10:29;;;;;;;7.43;4.22;;;;;;;16.34;80.55;96866.41;5092751;28;20034;-73
2022/05/24 01:13:20;;;;;;;9.15;4.07;;;;;;;16.39;80.61;96854.19;5072059;28;20460;-75
2022/05/24 01:15:46;;;;;;;11.90;4.45;;;;;;;16.47;79.92;96867.78;5076349;28;20031;-75
2022/05/24 01:18:13;;;;;;;9.95;4.22;;;;;;;16.28;81.39;96863.31;5092592;28;20031;-75
2022/05/24 01:20:39;;;;;;;9.88;4.88;;;;;;;16.30;82.11;96862.31;5092817;28;20034;-74
2022/05/24 01:23:42;;;;;;;9.30;4.57;;;;;;;16.35;81.68;96866.28;5092785;28;20024;-75
2022/05/24 01:26:17;;;;;;;;;;;;;;;16.30;81.37;96865.03;5092896;28;20081;-74
2022/05/24 01:28:50;;;;;;;9.40;4.07;;;;;;;16.18;82.95;96865.19;5092201;28;19916;-75
2022/05/24 01:31:20;;;;;;;12.18;4.32;;;;;;;16.27;82.57;96860.78;5092590;28;20051;-75
2022/05/24 01:36:35;;;;;;;11.30;4.22;;;;;;;16.03;85.22;96857.69;5093988;28;20107;-75
2022/05/24 01:39:04;;;;;;;9.15;3.95;;;;;;;15.82;86.67;96840.84;5092590;28;20026;-74
2022/05/24 01:41:41;;;;;;;11.15;4.13;;;;;;;16.07;85.41;96859.97;5092381;28;20027;-74
2022/05/24 01:44:08;;;;;;;9.25;4.30;;;;;;;15.88;87.36;96848.34;5088923;28;20494;-74
2022/05/24 01:46:40;;;;;;;8.25;4.63;;;;;;;16.15;85.36;96860.06;5092363;28;20073;-75
2022/05/24 01:49:10;;;;;;;7.10;4.22;;;;;;;15.95;85.80;96853.03;5075678;28;20126;-74
2022/05/24 01:51:44;;;;;;;8.63;4.68;;;;;;;15.99;86.33;96867.09;5075543;28;20024;-75
2022/05/24 01:54:11;;;;;;;5.75;4.25;;;;;;;16.14;82.83;96866.47;5109581;28;20027;-74
2022/05/24 01:56:39;;;;;;;12.90;4.47;;;;;;;16.04;83.67;96864.78;5109609;28;20607;-74
2022/05/24 01:59:06;;;;;;;17.23;4.82;;;;;;;16.16;82.70;96877.97;5092411;28;20024;-74
2022/05/24 02:01:45;;;;;;;8.00;4.45;;;;;;;16.18;83.58;96864.34;5092238;28;20036;-75
2022/05/24 02:04:11;;;;;;;9.52;4.30;;;;;;;16.15;83.38;96867.34;5092126;28;20065;-74
2022/05/24 02:06:36;;;;;;;9.15;4.50;;;;;;;16.10;84.14;96865.06;5091856;28;20044;-74
2022/05/24 02:09:04;;;;;;;7.97;4.60;;;;;;;16.20;82.84;96867.75;5074960;28;20483;-74
2022/05/24 02:11:31;;;;;;;7.07;4.70;;;;;;;16.23;83.03;96873.69;5092107;28;20035;-73
2022/05/24 02:14:18;;;;;;;15.23;4.85;;;;;;;16.01;84.54;96867.78;5074949;28;20024;-74
2022/05/24 02:16:49;;;;;;;10.15;5.25;;;;;;;16.29;83.77;96880.34;5074890;28;20457;-74
2022/05/24 02:19:16;;;;;;;11.77;6.43;;;;;;;16.20;84.43;96882.09;5101961;28;20023;-75
2022/05/24 02:21:44;;;;;;;9.55;5.68;;;;;;;16.20;84.75;96887.50;5091717;28;20589;-75
2022/05/24 02:24:20;;;;;;;11.35;6.72;;;;;;;16.09;85.82;96894.88;5091527;28;20024;-75
2022/05/24 02:26:46;;;;;;;15.18;6.50;;;;;;;16.00;86.90;96895.75;5091793;28;20395;-76
2022/05/24 02:29:13;;;;;;;11.73;6.90;;;;;;;16.03;87.44;96884.66;5091919;28;20032;-75
2022/05/24 02:31:38;;;;;;;15.65;7.43;;;;;;;16.04;86.92;96880.97;5091748;28;20027;-74
2022/05/24 02:34:04;;;;;;;16.88;7.85;;;;;;;16.03;86.97;96869.34;5074309;28;20020;-74
2022/05/24 02:36:29;;;;;;;10.52;7.10;;;;;;;16.03;86.84;96879.25;5091780;28;20051;-74
2022/05/24 02:38:55;;;;;;;13.45;6.60;;;;;;;15.90;86.99;96849.06;5074875;28;20020;-74
2022/05/24 02:41:31;;;;;;;14.48;6.57;;;;;;;16.05;86.27;96863.81;5091477;28;20369;-75
2022/05/24 02:44:07;;;;;;;11.10;5.63;;;;;;;16.08;86.57;96879.69;5091160;28;20028;-76
2022/05/24 02:46:34;;;;;;;12.00;5.93;;;;;;;15.83;87.40;96872.22;5091263;28;20102;-75
2022/05/24 02:49:00;;;;;;;15.00;6.40;;;;;;;16.12;87.15;96883.78;5091041;28;20020;-75
2022/05/24 02:51:26;;;;;;;13.23;6.50;;;;;;;15.95;88.00;96881.84;5091604;28;20487;-73
2022/05/24 02:53:52;;;;;;;16.60;6.78;;;;;;;15.99;87.85;96884.13;5074157;28;20507;-75
2022/05/24 02:56:18;;;;;;;13.85;6.75;;;;;;;16.00;87.79;96875.00;5091250;28;20110;-73
2022/05/24 02:58:43;;;;;;;17.65;5.82;;;;;;;15.99;87.75;96877.88;5090988;28;20054;-73
2022/05/24 03:01:21;;;;;;;14.23;5.90;;;;;;;15.90;87.95;96874.22;5091095;28;20024;-74
2022/05/24 03:03:49;;;;;;;13.27;6.38;;;;;;;15.88;88.95;96873.47;5091079;28;20150;-73
2022/05/24 03:06:15;;;;;;;12.80;5.57;;;;;;;15.96;88.34;96886.25;5090801;28;20040;-74
2022/05/24 03:11:25;;;;;;;12.35;6.10;;;;;;;16.17;87.74;96893.19;5105910;28;20035;-75
2022/05/24 03:16:35;;;;;;;11.32;5.90;;;;;;;16.12;86.92;96889.19;5091036;28;20035;-75
2022/05/24 03:19:00;;;;;;;13.52;5.78;;;;;;;16.08;87.21;96895.88;5090597;28;20023;-76
2022/05/24 03:21:26;;;;;;;9.98;5.55;;;;;;;16.08;87.36;96894.06;5090859;28;20050;-75
2022/05/24 03:23:51;;;;;;;12.55;6.22;;;;;;;16.06;86.96;96892.47;5073585;28;20453;-75
2022/05/24 03:26:17;;;;;;;10.18;5.45;;;;;;;16.03;88.08;96893.59;5090428;28;20126;-74
2022/05/24 03:28:43;;;;;;;12.13;5.80;;;;;;;16.17;87.42;96895.03;5090349;28;20020;-74
2022/05/24 03:31:09;;;;;;;9.15;5.35;;;;;;;16.06;89.82;96889.78;5090615;28;20024;-75
2022/05/24 03:33:36;;;;;;;14.80;5.78;;;;;;;16.09;89.98;96895.72;5090464;28;20134;-74
2022/05/24 03:36:02;;;;;;;13.85;5.15;;;;;;;16.00;90.79;96884.94;5090319;28;20023;-75
2022/05/24 03:38:28;;;;;;;13.10;5.30;;;;;;;16.09;90.54;96873.28;5090698;28;20411;-83
2022/05/24 03:40:55;;;;;;;11.20;5.72;;;;;;;16.17;90.51;96877.00;5074596;28;20036;-85
2022/05/24 03:43:20;;;;;;;11.02;5.40;;;;;;;16.23;90.12;96891.75;5091082;28;20408;-84
2022/05/24 03:45:47;;;;;;;10.63;5.15;;;;;;;16.19;89.78;96877.69;5074157;28;20032;-83
2022/05/24 03:48:13;;;;;;;14.00;4.90;;;;;;;16.37;88.77;96888.56;5090891;28;20495;-84
2022/05/24 03:50:39;;;;;;;11.82;4.88;;;;;;;16.41;89.02;96889.97;5092652;28;20557;-84
2022/05/24 03:53:13;;;;;;;7.20;4.25;;;;;;;16.48;88.88;96885.69;5090834;28;20043;-82
2022/05/24 03:55:39;;;;;;;9.95;4.65;;;;;;;16.58;88.38;96885.69;5090526;28;20141;-82
2022/05/24 03:58:05;;;;;;;8.30;4.35;;;;;;;16.93;86.32;96896.59;5090643;28;20081;-82
2022/05/24 04:00:35;;;;;;;14.07;5.20;;;;;;;16.97;84.71;96908.81;5089952;28;20031;-84
2022/05/24 04:03:01;;;;;;;7.25;4.57;;;;;;;17.29;81.05;96900.22;5073833;28;20024;-85
2022/05/24 04:05:27;;;;;;;12.35;5.18;;;;;;;17.61;79.04;96919.56;5090000;28;20132;-84
2022/05/24 04:07:53;;;;;;;5.72;3.58;;;;;;;17.66;75.85;96906.41;5090905;28;20044;-85
2022/05/24 04:10:19;;;;;;;10.82;4.30;;;;;;;17.61;77.43;96911.44;5090257;28;20042;-84
2022/05/24 04:12:45;;;;;;;6.57;4.10;;;;;;;17.90;76.08;96900.38;5090866;28;20028;-83
2022/05/24 04:15:12;;;;;;;9.32;4.78;;;;;;;17.92;74.41;96873.16;5090427;28;20479;-83
2022/05/24 04:17:38;;;;;;;5.75;3.63;;;;;;;18.22;73.25;96891.66;5090897;28;20119;-85
2022/05/24 04:20:05;;;;;;;19.90;4.55;;;;;;;18.05;74.95;96889.84;5107852;28;20060;-84
2022/05/24 04:23:23;;;;;;;;;;;;;;;;;;;;;
2022/05/24 04:25:49;;;;;;;10.32;4.22;;;;;;;18.00;73.51;96838.88;5104512;28;20024;-79
2022/05/24 04:28:34;;;;;;;14.35;4.70;;;;;;;18.50;72.47;96895.94;5090171;28;20107;-76
2022/05/24 04:31:00;;;;;;;8.80;3.88;;;;;;;18.37;70.69;96879.22;5084139;28;20468;-76
2022/05/24 04:33:25;;;;;;;12.52;3.97;;;;;;;18.83;69.82;96899.69;5089805;28;20036;-75
2022/05/24 04:35:51;;;;;;;16.02;4.95;;;;;;;19.46;66.90;96900.97;5090752;28;20407;-76
2022/05/24 04:38:17;;;;;;;11.82;3.88;;;;;;;19.46;65.59;96898.28;5090225;28;20054;-77
2022/05/24 04:43:27;;;;;;;10.85;3.88;;;;;;;19.41;66.82;96910.63;5091446;28;20046;-76
2022/05/24 04:45:53;;;;;;;13.60;4.57;;;;;;;19.61;65.37;96911.19;5091242;28;20419;-77
2022/05/24 04:48:20;;;;;;;11.88;3.90;;;;;;;19.48;65.62;96917.09;5091245;28;20024;-78
2022/05/24 04:51:05;;;;;;;;;;;;;;;;;;;;;
2022/05/24 04:53:30;;;;;;;8.63;4.45;;;;;;;19.72;63.97;96902.75;5105607;28;20031;-76
2022/05/24 04:55:56;;;;;;;9.23;3.92;;;;;;;20.34;60.79;96893.09;5091057;28;20099;-76
2022/05/24 04:58:22;;;;;;;7.07;3.70;;;;;;;21.49;56.71;96897.00;5089117;28;20035;-77
2022/05/24 05:00:48;;;;;;;20.70;4.35;;;;;;;22.64;53.27;96906.88;5072024;28;20024;-76
2022/05/24 05:03:19;;;;;;;5.05;3.50;;;;;;;22.02;53.87;96904.34;5089574;28;20169;-79
2022/05/24 05:05:46;;;;;;;6.88;3.78;;;;;;;22.10;53.23;96909.72;5089140;28;20580;-77
2022/05/24 05:08:12;;;;;;;5.82;4.20;;;;;;;22.39;53.34;96927.22;5083824;28;20519;-78
2022/05/24 05:10:38;;;;;;;6.95;3.35;;;;;;;22.06;53.52;96924.72;5089493;28;20039;-77
2022/05/24 05:13:07;;;;;;;5.25;3.60;;;;;;;22.05;52.61;96917.59;5089267;28;20020;-77
2022/05/24 05:15:34;;;;;;;10.82;4.03;;;;;;;22.95;51.22;96920.38;5071980;28;20535;-77
2022/05/24 05:18:09;;;;;;;10.75;4.00;;;;;;;24.31;48.43;96921.47;5089274;28;20025;-77
2022/05/24 05:20:40;;;;;;;22.90;3.85;;;;;;;25.30;46.81;96929.41;5089621;28;20074;-78
2022/05/24 05:23:07;;;;;;;10.60;4.38;;;;;;;25.97;45.14;96918.56;5105772;28;20024;-76
2022/05/24 05:25:33;;;;;;;16.70;4.40;;;;;;;26.47;43.72;96919.13;5088838;28;20032;-77
2022/05/24 05:27:58;;;;;;;9.35;3.40;;;;;;;26.54;42.75;96926.31;5088924;28;20024;-77
2022/05/24 05:33:08;;;;;;;7.93;4.05;;;;;;;25.57;45.06;96949.59;5089435;28;20027;-77
2022/05/24 05:35:33;;;;;;;10.73;6.75;;;;;;;25.27;45.66;96949.84;5088733;28;20024;-76
2022/05/24 05:37:59;;;;;;;25.73;11.18;;;;;;;24.10;48.15;96957.81;5071970;28;20028;-76
2022/05/24 05:40:25;;;;;;;13.00;5.22;;;;;;;24.01;48.06;96959.81;5091279;28;20031;-76
2022/05/24 05:42:50;;;;;;;16.27;6.43;;;;;;;23.69;49.10;96966.56;5092766;28;20045;-77
2022/05/24 05:45:16;;;;;;;6.38;3.85;;;;;;;23.67;49.24;96959.63;5092604;28;20051;-77
2022/05/24 05:47:42;;;;;;;15.32;7.32;;;;;;;24.72;47.37;96949.81;5109527;28;20037;-77
2022/05/24 05:50:08;;;;;;;9.50;3.97;;;;;;;24.67;46.89;96947.66;5092649;28;20452;-77
2022/05/24 05:52:34;;;;;;;7.35;3.72;;;;;;;24.41;47.01;96950.19;5092981;28;20031;-77
2022/05/24 05:54:59;;;;;;;7.93;3.97;;;;;;;25.43;45.42;96958.78;5092621;28;20108;-76
2022/05/24 05:57:25;;;;;;;8.18;4.00;;;;;;;26.98;41.97;96930.34;5093304;28;20050;-78
2022/05/24 05:59:53;;;;;;;12.88;3.70;;;;;;;27.81;40.11;96921.28;5075519;28;20038;-78
2022/05/24 06:02:18;;;;;;;7.32;4.40;;;;;;;28.24;39.56;96919.59;5079666;28;20058;-92
2022/05/24 06:04:44;;;;;;;5.88;3.30;;;;;;;28.64;38.60;96933.09;5093856;28;20099;-80
2022/05/24 06:07:10;;;;;;;9.05;4.18;;;;;;;29.51;37.35;96928.28;5092568;28;20052;-81
2022/05/24 06:09:36;;;;;;;7.32;3.78;;;;;;;29.70;36.20;96928.28;5092497;28;20445;-81
2022/05/24 06:12:03;;;;;;;13.45;3.28;;;;;;;29.56;36.35;96928.44;5091996;28;20104;-80
2022/05/24 06:14:28;;;;;;;6.90;3.45;;;;;;;30.57;34.78;96934.19;5074922;28;20024;-80
2022/05/24 06:16:54;;;;;;;8.35;3.08;;;;;;;29.76;35.75;96946.69;5075488;28;20039;-80
2022/05/24 06:19:22;;;;;;;8.68;3.17;;;;;;;28.75;37.24;96937.91;5092271;28;20423;-80
2022/05/24 06:21:48;;;;;;;11.57;3.45;;;;;;;28.48;37.21;96945.50;5075049;28;20563;-81
2022/05/24 06:24:14;;;;;;;7.47;2.95;;;;;;;28.11;38.34;96940.84;5075088;28;20115;-80
2022/05/24 06:26:40;;;;;;;8.20;4.78;;;;;;;27.03;40.64;96945.13;5092165;28;20028;-79
2022/05/24 06:29:08;;;;;;;8.07;3.33;;;;;;;27.24;40.45;96949.53;5091904;28;20502;-80
2022/05/24 06:31:34;;;;;;;6.25;3.75;;;;;;;28.50;38.59;96930.44;5074794;28;20039;-80
2022/05/24 06:33:59;;;;;;;11.77;5.38;;;;;;;28.36;38.81;96934.31;5091701;28;20024;-80
2022/05/24 06:36:25;;;;;;;14.70;3.60;;;;;;;28.21;39.22;96946.72;5091578;28;20040;-81
2022/05/24 06:38:51;;;;;;;13.32;3.80;;;;;;;27.97;39.54;96940.03;5091229;28;20024;-81
2022/05/24 06:41:16;;;;;;;14.55;4.28;;;;;;;27.69;40.63;96937.59;5091438;28;20028;-81
2022/05/24 06:43:42;;;;;;;8.38;3.72;;;;;;;27.33;40.96;96926.25;5091464;28;20036;-80
2022/05/24 06:46:08;;;;;;;7.70;3.67;;;;;;;27.34;41.08;96933.47;5074444;28;20019;-80
2022/05/24 06:48:38;;;;;;;10.20;3.70;;;;;;;27.66;41.02;96931.69;5074395;28;20105;-81
2022/05/24 06:51:15;;;;;;;7.70;3.88;;;;;;;29.50;38.03;96934.88;5091117;28;20480;-81
2022/05/24 06:53:43;;;;;;;16.38;10.05;;;;;;;31.23;35.12;96916.50;5085637;28;20028;-80
2022/05/24 06:56:11;;;;;;;9.65;4.13;;;;;;;32.48;33.24;96914.81;5074448;28;20093;-80
2022/05/24 06:58:38;;;;;;;6.75;3.72;;;;;;;33.37;31.63;96917.75;5090989;28;20085;-80
2022/05/24 07:03:58;;;;;;;7.85;3.35;;;;;;;34.27;30.00;96904.34;5100698;28;20407;-82
2022/05/24 07:06:24;;;;;;;10.82;3.33;;;;;;;34.33;29.51;96904.09;5090978;28;20044;-83
2022/05/24 07:08:50;;;;;;;8.43;3.72;;;;;;;35.33;28.67;96888.66;5091422;28;20054;-83
2022/05/24 07:11:18;;;;;;;10.00;3.40;;;;;;;36.71;27.55;96894.59;5092742;28;20111;-83
2022/05/24 07:13:50;;;;;;;7.20;3.08;;;;;;;38.03;26.02;96885.03;5108894;28;20056;-83
2022/05/24 07:16:15;;;;;;;;;;;;;;;38.16;26.01;96889.16;5075156;28;20415;-83
2022/05/24 07:18:41;;;;;;;13.27;3.67;;;;;;;37.40;26.58;96894.94;5091826;28;19951;-83
2022/05/24 07:21:07;;;;;;;8.90;3.97;;;;;;;35.13;29.25;96902.44;5092321;28;20144;-83
2022/05/24 07:23:37;;;;;;;10.23;3.53;;;;;;;34.51;30.15;96908.47;5108203;28;20448;-83
2022/05/24 07:26:12;;;;;;;9.60;3.75;;;;;;;33.61;30.97;96911.78;5074359;28;20491;-83
2022/05/24 07:28:38;;;;;;;8.27;3.65;;;;;;;32.72;32.64;96913.63;5090485;28;20415;-83
2022/05/24 07:31:03;;;;;;;8.13;4.22;;;;;;;31.66;33.83;96930.81;5090923;28;20020;-82
2022/05/24 07:33:29;;;;;;;8.82;3.80;;;;;;;30.39;36.57;96930.63;5107769;28;20047;-82
2022/05/24 07:35:54;;;;;;;11.27;4.40;;;;;;;29.82;37.28;96935.59;5074112;28;20024;-82
2022/05/24 07:38:22;;;;;;;12.57;3.67;;;;;;;29.64;37.56;96938.34;5074007;28;20395;-83
2022/05/24 07:46:16;;;;;;;7.30;3.80;;;;;;;28.49;39.41;96931.50;5091244;28;20034;-82
2022/05/24 07:48:45;;;;;;;8.48;3.80;;;;;;;28.91;38.88;96935.44;5090498;28;20396;-84
2022/05/24 07:51:10;;;;;;;10.15;3.58;;;;;;;29.55;37.93;96935.03;5091356;28;20407;-83
2022/05/24 07:53:37;;;;;;;10.27;3.92;;;;;;;31.25;35.19;96919.03;5090983;28;20024;-82
2022/05/24 07:56:03;;;;;;;11.18;3.60;;;;;;;31.39;34.81;96904.72;5091815;28;20027;-83
2022/05/24 07:58:28;;;;;;;8.70;3.22;;;;;;;30.53;35.81;96924.66;5091490;28;20024;-83
2022/05/24 08:00:55;;;;;;;7.70;3.60;;;;;;;30.15;36.21;96923.31;5091136;28;20034;-83
2022/05/24 08:03:21;;;;;;;8.35;3.30;;;;;;;29.95;36.54;96923.56;5091044;28;20035;-83
2022/05/24 08:05:47;;;;;;;6.63;3.92;;;;;;;31.17;34.86;96928.53;5107269;28;20024;-83
2022/05/24 08:08:14;;;;;;;6.25;3.60;;;;;;;32.67;32.28;96912.72;5090032;28;20048;-83
2022/05/24 08:10:40;;;;;;;6.72;3.80;;;;;;;34.82;29.93;96904.09;5089906;28;20016;-83
2022/05/24 08:13:08;;;;;;;8.48;4.15;;;;;;;35.87;28.62;96895.69;5090086;28;20035;-84
2022/05/24 08:15:34;;;;;;;6.50;3.63;;;;;;;37.52;26.82;96892.69;5090194;28;20414;-85
2022/05/24 08:17:59;;;;;;;7.03;4.13;;;;;;;38.48;25.44;96889.59;5073000;28;20036;-83
2022/05/24 08:20:26;;;;;;;5.70;3.70;;;;;;;38.15;25.65;96895.88;5090490;28;20059;-83
2022/05/24 08:22:52;;;;;;;12.35;4.05;;;;;;;38.17;25.58;96888.03;5073797;28;20554;-83
2022/05/24 08:25:17;;;;;;;6.35;3.90;;;;;;;39.00;25.02;96884.22;5090399;28;20099;-83
2022/05/24 08:27:43;;;;;;;10.88;4.47;;;;;;;39.60;24.62;96881.16;5106999;28;20062;-82
2022/05/24 08:30:12;;;;;;;7.80;3.78;;;;;;;40.82;23.38;96887.78;5090106;28;20020;-83
2022/05/24 08:32:38;;;;;;;8.70;4.10;;;;;;;41.13;22.87;96876.09;5107736;28;20402;-84
2022/05/24 08:35:08;;;;;;;8.75;3.90;;;;;;;41.30;22.67;96857.53;5070447;28;20024;-80
2022/05/24 08:37:33;;;;;;;15.95;3.60;;;;;;;42.40;21.78;96864.09;5094246;28;20051;-82
2022/05/24 08:39:59;;;;;;;8.23;4.00;;;;;;;43.50;21.04;96869.06;5090329;28;20115;-83
2022/05/24 08:42:43;;;;;;;6.25;4.22;;;;;;;41.23;22.50;96867.47;5091224;28;20024;-81
2022/05/24 08:50:50;;;;;;;11.07;4.30;;;;;;;41.87;21.95;96875.06;5104390;28;20092;-82
2022/05/24 08:53:50;;;;;;;6.05;3.53;;;;;;;42.70;21.48;96860.63;5086402;28;20027;-84
2022/05/24 08:56:30;;;;;;;6.63;3.60;;;;;;;44.34;20.09;96882.25;5089874;28;20032;-83
2022/05/24 08:59:08;;;;;;;7.20;4.27;;;;;;;43.72;20.51;96866.19;5088993;28;20368;-83
2022/05/24 09:01:34;;;;;;;7.07;3.75;;;;;;;44.23;20.30;96873.28;5090404;28;20031;-83
2022/05/24 09:04:06;;;;;;;10.07;3.92;;;;;;;44.84;20.03;96877.03;5089684;28;20498;-84
2022/05/24 09:07:08;;;;;;;5.18;3.90;;;;;;;44.63;19.86;96868.41;5089327;28;20526;-84
2022/05/24 09:10:03;;;;;;;6.18;4.10;;;;;;;45.15;19.39;96860.78;5066142;28;20376;-83
2022/05/24 09:12:53;;;;;;;11.40;4.28;;;;;;;45.14;19.70;96873.25;5075306;28;20534;-83
2022/05/24 09:15:41;;;;;;;8.35;4.10;;;;;;;44.96;19.85;96871.59;5090215;28;20027;-84
2022/05/24 09:18:37;;;;;;;6.78;4.45;;;;;;;42.59;21.87;96874.09;5094654;28;20487;-83
2022/05/24 09:21:03;;;;;;;6.75;4.50;;;;;;;41.61;22.90;96883.09;5093165;28;20484;-83
2022/05/24 09:23:46;;;;;;;6.75;3.95;;;;;;;40.29;23.42;96866.66;5110274;28;20524;-83
2022/05/24 09:26:19;;;;;;;6.68;4.63;;;;;;;38.09;26.28;96877.44;5093151;28;20055;-84
2022/05/24 09:28:49;;;;;;;9.95;4.78;;;;;;;37.97;26.76;96877.78;5093318;28;20031;-84
2022/05/24 09:32:02;;;;;;;12.98;4.70;;;;;;;38.02;26.76;96883.38;5094378;28;20039;-84
2022/05/24 09:37:36;;;;;;;17.65;4.75;;;;;;;34.81;30.79;96897.69;5092576;28;20146;-81
2022/05/24 09:40:17;;;;;;;7.60;4.95;;;;;;;34.15;32.21;96884.16;5103414;28;20039;-82
2022/05/24 09:42:43;;;;;;;12.20;5.18;;;;;;;34.69;31.52;96898.97;5092957;28;20048;-82
2022/05/24 09:45:37;;;;;;;15.13;5.22;;;;;;;34.41;31.72;96902.81;5075930;28;20024;-81
2022/05/24 09:48:20;;;;;;;7.82;4.40;;;;;;;35.02;31.09;96901.47;5069643;28;20113;-82
2022/05/24 09:50:51;;;;;;;6.95;4.50;;;;;;;37.29;29.36;96901.63;5086276;28;20023;-83
2022/05/24 09:53:19;;;;;;;16.83;5.03;;;;;;;39.56;26.44;96890.16;5092437;28;20035;-83
2022/05/24 09:56:23;;;;;;;12.88;4.75;;;;;;;38.86;27.04;96901.94;5076291;28;20342;-83
2022/05/24 09:59:02;;;;;;;6.60;4.03;;;;;;;40.27;25.73;96892.16;5091483;28;20055;-83
2022/05/24 10:01:44;;;;;;;6.68;3.88;;;;;;;42.49;23.39;96904.41;5092937;28;20063;-83
2022/05/24 10:04:27;;;;;;;7.00;3.38;;;;;;;43.33;22.69;96907.53;5088522;28;20024;-84
2022/05/24 10:06:58;;;;;;;12.18;3.55;;;;;;;43.27;22.83;96915.28;5092460;28;20138;-82
2022/05/24 10:09:44;;;;;;;15.65;3.22;;;;;;;42.31;23.37;96923.09;5092278;28;20036;-83
2022/05/24 10:12:27;;;;;;;8.10;3.05;;;;;;;42.31;23.19;96928.72;5091988;28;20118;-83
2022/05/24 10:14:58;;;;;;;12.60;3.20;;;;;;;42.47;22.99;96934.84;5092842;28;20043;-83
2022/05/24 10:18:03;;;;;;;23.42;4.13;;;;;;;42.22;22.64;96943.81;5090104;28;20024;-83
2022/05/24 10:20:35;;;;;;;25.92;4.20;;;;;;;38.88;25.97;96964.06;5094982;28;20040;-82
2022/05/24 10:23:34;;;;;;;17.45;3.60;;;;;;;36.84;27.88;96974.94;5091624;28;20452;-82
2022/05/24 10:26:32;;;;;;;52.08;5.60;;;;;;;33.14;32.54;97002.81;5084975;28;20024;-82
2022/05/24 10:29:24;;;;;;;10.32;3.30;;;;;;;33.69;32.31;97014.00;5092690;28;20568;-81
2022/05/24 10:31:56;;;;;;;35.03;4.22;;;;;;;34.83;31.68;97012.25;5075256;28;20035;-82
2022/05/24 10:40:34;;;;;;;10.43;3.08;;;;;;;30.01;37.10;97066.09;5093374;28;20031;-82
2022/05/24 10:43:07;;;;;;;16.35;4.05;;;;;;;30.67;36.57;97076.38;5092050;28;20481;-82
2022/05/24 10:45:51;;;;;;;12.55;4.28;;;;;;;30.34;36.29;97074.00;5060205;28;20035;-89
2022/05/24 10:48:43;;;;;;;9.82;3.40;;;;;;;30.42;36.77;97084.78;5084180;28;20051;-84
2022/05/24 10:51:23;;;;;;;6.53;3.25;;;;;;;31.17;35.81;97086.09;5086860;28;20067;-84
2022/05/24 10:54:20;;;;;;;11.40;3.53;;;;;;;31.73;34.72;97082.00;5089419;28;20036;-84
2022/05/24 10:56:53;;;;;;;7.35;3.13;;;;;;;33.63;32.08;97095.50;5057065;28;20047;-84
2022/05/24 10:59:37;;;;;;;10.15;3.53;;;;;;;35.74;29.47;97079.97;5088268;28;20024;-85
2022/05/24 11:02:16;;;;;;;9.75;3.53;;;;;;;38.02;26.27;97067.78;5067199;28;20036;-84
2022/05/24 11:05:21;;;;;;;6.03;3.70;;;;;;;36.01;28.59;97053.97;5089487;28;20387;-85
2022/05/24 11:07:49;;;;;;;12.02;3.22;;;;;;;36.30;27.84;97044.16;5076744;28;20078;-85
2022/05/24 11:10:22;;;;;;;9.05;3.03;;;;;;;37.26;26.75;97042.56;5089393;28;20089;-84
2022/05/24 11:12:50;;;;;;;6.93;3.13;;;;;;;34.44;30.41;97051.47;5106550;28;20038;-88
2022/05/24 11:15:23;;;;;;;8.50;3.25;;;;;;;34.69;30.87;97049.06;5089900;28;20036;-88
2022/05/24 11:17:49;;;;;;;8.27;3.35;;;;;;;34.23;30.44;97042.03;5090996;28;20102;-89
2022/05/24 11:20:21;;;;;;;6.68;3.53;;;;;;;34.25;30.77;97025.94;5089547;28;20036;-88
2022/05/24 11:23:01;;;;;;;6.03;3.60;;;;;;;34.78;30.00;97003.84;5089258;28;20043;-88
2022/05/24 11:25:31;;;;;;;9.63;3.60;;;;;;;34.36;30.88;97000.00;5092774;28;20024;-90
2022/05/24 11:27:56;;;;;;;7.47;3.97;;;;;;;32.23;33.18;97011.25;5092322;28;20495;-89
2022/05/24 11:30:28;;;;;;;4.30;3.28;;;;;;;31.24;34.76;97006.66;5091975;28;20191;-89
2022/05/24 11:33:15;;;;;;;8.23;3.58;;;;;;;31.25;34.91;97008.34;5092623;28;20039;-89
2022/05/24 11:35:50;;;;;;;4.97;3.10;;;;;;;31.33;35.39;96999.69;5076133;28;20071;-90
2022/05/24 11:38:22;;;;;;;6.18;2.97;;;;;;;32.29;33.50;96993.66;5092535;28;20060;-89
2022/05/24 11:41:01;;;;;;;9.05;3.60;;;;;;;32.63;33.17;96995.47;5091100;28;20028;-90
2022/05/24 11:43:36;;;;;;;11.68;3.58;;;;;;;32.86;32.75;96985.34;5092676;28;20035;-89
2022/05/24 11:46:08;;;;;;;4.00;3.15;;;;;;;33.03;32.96;96983.44;5092935;28;20047;-90
2022/05/24 11:48:42;;;;;;;11.10;3.97;;;;;;;33.61;31.81;96974.75;5074805;28;20039;-90
2022/05/24 11:51:42;;;;;;;12.65;3.55;;;;;;;34.25;31.50;96956.50;5091525;28;20568;-90
2022/05/24 11:54:27;;;;;;;7.32;3.38;;;;;;;34.46;30.88;96961.19;5092581;28;20024;-90
2022/05/24 11:57:02;;;;;;;9.25;3.30;;;;;;;34.93;30.80;96960.63;5088259;28;20494;-90
2022/05/24 11:59:40;;;;;;;10.55;3.53;;;;;;;32.60;33.09;96957.19;5090950;28;20093;-90
2022/05/24 12:08:34;;;;;;;7.53;3.30;;;;;;;33.61;32.37;96947.84;5092328;28;20135;-89
2022/05/24 12:11:06;;;;;;;7.28;3.60;;;;;;;33.24;32.76;96952.22;5091814;28;20027;-89
2022/05/24 12:13:48;;;;;;;;;;;;;;;33.26;32.20;96938.94;5092529;28;20024;-89
2022/05/24 12:16:40;;;;;;;6.75;3.50;;;;;;;33.03;32.85;96945.50;5091927;28;20370;-88
2022/05/24 12:19:09;;;;;;;5.85;3.38;;;;;;;32.85;32.88;96948.50;5087990;28;20043;-89
2022/05/24 12:21:50;;;;;;;4.07;3.20;;;;;;;34.67;31.20;96945.63;5078182;28;20024;-90
2022/05/24 12:24:47;;;;;;;4.10;3.47;;;;;;;33.83;31.54;96945.13;5091171;28;20151;-90
2022/05/24 12:27:19;;;;;;;9.00;3.63;;;;;;;34.17;30.73;96926.41;5073986;28;20126;-91
2022/05/24 12:29:49;;;;;;;4.30;3.70;;;;;;;34.03;30.93;96922.31;5092098;28;20028;-90
2022/05/24 12:32:16;;;;;;;6.85;3.55;;;;;;;33.68;31.90;96929.09;5092301;28;20032;-88
2022/05/24 12:34:42;;;;;;;5.72;3.47;;;;;;;35.18;30.03;96927.50;5092394;28;20499;-89
2022/05/24 12:37:30;;;;;;;8.38;3.78;;;;;;;33.90;32.04;96928.28;5093384;28;20035;-90
2022/05/24 12:40:10;;;;;;;8.85;3.58;;;;;;;34.70;31.13;96929.25;5093353;28;20024;-89